Time;durP1;ratioP1;P1;durP2;ratioP2;P2;SDS_P1;SDS_P2;PMS_P1;PMS_P2;Temp;Humidity;BMP_temperature;BMP_pressure;BME280_temperature;BME280_humidity;BME280_pressure;Samples;Min_cycle;Max_cycle;Signal;HPM_P1;HPM_P2
2022/08/04 13:40:28;;;;;;;6.20;0.60;;;30.30;50.40;;;;;;5116305;27;20203;-66
2022/08/04 13:42:57;;;;;;;5.95;0.30;;;30.50;50.90;;;;;;5104213;28;20507;-69
2022/08/04 13:45:26;;;;;;;3.92;0.10;;;30.60;49.30;;;;;;5096169;28;20684;-69
2022/08/04 13:48:00;;;;;;;7.15;0.43;;;30.80;48.40;;;;;;5104495;28;20514;-63
2022/08/04 15:10:21;;;;;;;;;;;31.80;44.80;;;;;;5108521;27;20116;-66
2022/08/04 15:12:49;;;;;;;6.93;0.50;;;31.90;46.10;;;;;;5102101;28;19924;-58
2022/08/04 15:15:16;;;;;;;1.20;0.40;;;32.00;45.20;;;;;;5105358;28;20044;-56
2022/08/04 15:17:43;;;;;;;0.95;0.13;;;32.10;44.60;;;;;;5115977;28;20130;-56
2022/08/04 15:20:13;;;;;;;0.10;0.10;;;32.30;44.20;;;;;;5113233;27;20048;-56
2022/08/04 15:22:40;;;;;;;0.40;0.22;;;32.50;43.70;;;;;;5108619;27;20110;-56
2022/08/04 15:25:08;;;;;;;0.70;0.40;;;32.70;43.20;;;;;;5118439;28;20028;-58
2022/08/04 15:27:39;;;;;;;3.17;0.10;;;32.90;42.70;;;;;;5105764;28;20055;-61
2022/08/04 15:30:08;;;;;;;2.78;0.63;;;33.00;42.20;;;;;;5118295;27;20043;-64
2022/08/04 15:32:38;;;;;;;5.03;0.20;;;33.20;41.80;;;;;;5124158;28;20048;-61
2022/08/04 15:35:09;;;;;;;2.53;0.20;;;33.30;41.40;;;;;;5118262;27;20132;-63
2022/08/04 15:37:44;;;;;;;1.85;0.20;;;33.50;41.00;;;;;;5112409;28;20497;-64
2022/08/04 15:40:15;;;;;;;9.13;0.45;;;33.50;40.70;;;;;;5112345;27;20606;-62
2022/08/04 15:42:48;;;;;;;0.75;0.60;;;33.60;40.50;;;;;;5111440;27;20108;-62
2022/08/04 15:45:22;;;;;;;2.15;0.68;;;33.70;40.30;;;;;;5096771;28;20045;-64
2022/08/04 15:48:33;;;;;;;0.60;0.57;;;33.80;40.20;;;;;;5104872;28;20492;-63
2022/08/04 15:51:18;;;;;;;0.63;0.32;;;33.90;40.00;;;;;;5111558;27;20035;-64
2022/08/04 15:54:16;;;;;;;;;;;33.90;39.90;;;;;;5124706;27;20039;-61
2022/08/04 15:56:45;;;;;;;2.22;0.38;;;34.00;40.20;;;;;;5119508;28;19926;-63
2022/08/04 15:59:14;;;;;;;0.90;0.40;;;33.90;40.00;;;;;;5110846;27;20504;-60
2022/08/04 16:01:42;;;;;;;0.90;0.32;;;34.00;39.80;;;;;;5106972;28;20063;-60
2022/08/04 16:04:23;;;;;;;0.32;0.32;;;34.00;39.70;;;;;;5106551;28;20082;-68
2022/08/04 16:06:51;;;;;;;2.65;0.10;;;34.10;39.90;;;;;;5114491;27;20773;-66
2022/08/04 16:09:35;;;;;;;1.60;0.73;;;34.10;40.10;;;;;;5111182;27;20047;-66
2022/08/04 16:12:03;;;;;;;0.63;0.40;;;34.10;40.40;;;;;;5107505;28;20075;-66
2022/08/04 16:14:34;;;;;;;8.35;0.30;;;34.10;40.70;;;;;;5106505;28;20077;-64
2022/08/04 16:17:18;;;;;;;2.85;0.20;;;34.20;41.00;;;;;;5097440;28;20115;-67
2022/08/04 16:19:54;;;;;;;0.82;0.38;;;34.20;41.40;;;;;;5104406;28;20050;-64
2022/08/04 16:22:37;;;;;;;0.63;0.57;;;34.20;42.10;;;;;;5091466;28;20044;-62
2022/08/04 16:25:06;;;;;;;106.82;5.95;;;34.30;42.20;;;;;;5088253;28;20138;-60
2022/08/04 16:27:38;;;;;;;1.00;0.30;;;34.30;42.60;;;;;;5087756;28;20036;-69
2022/08/04 16:30:09;;;;;;;0.55;0.10;;;34.30;42.10;;;;;;5098332;28;20055;-64
2022/08/04 16:32:47;;;;;;;3.22;0.95;;;34.30;41.70;;;;;;5086424;28;20472;-68
2022/08/04 16:35:28;;;;;;;1.88;0.10;;;34.30;41.40;;;;;;5086910;28;20063;-70
2022/08/04 16:38:12;;;;;;;1.42;0.30;;;34.30;41.20;;;;;;5093462;28;20032;-61
2022/08/04 16:40:43;;;;;;;1.27;0.47;;;34.30;41.10;;;;;;5086618;28;20426;-59
2022/08/04 16:43:12;;;;;;;1.85;0.90;;;34.30;41.00;;;;;;5090491;28;20956;-59
2022/08/04 16:45:43;;;;;;;2.28;1.15;;;34.30;40.90;;;;;;5103066;28;20075;-58
2022/08/04 16:48:11;;;;;;;3.10;1.02;;;34.30;40.70;;;;;;5089219;28;20161;-58
2022/08/04 16:51:05;;;;;;;1.02;0.20;;;34.30;40.70;;;;;;5084624;28;20124;-66
2022/08/04 16:53:37;;;;;;;6.63;0.35;;;34.30;40.70;;;;;;5072545;28;20147;-53
2022/08/04 16:56:05;;;;;;;2.58;0.25;;;34.30;40.70;;;;;;5090121;28;20051;-59
2022/08/04 16:58:35;;;;;;;7.93;0.63;;;34.30;41.50;;;;;;5099782;28;20039;-61
2022/08/04 17:01:09;;;;;;;3.28;0.68;;;34.30;40.90;;;;;;5107623;28;20126;-62
2022/08/04 17:03:37;;;;;;;4.70;0.40;;;34.30;40.80;;;;;;5100678;28;20534;-55
2022/08/04 17:06:09;;;;;;;3.90;0.32;;;34.30;40.90;;;;;;5094311;28;20042;-59
2022/08/04 17:08:37;;;;;;;2.42;0.20;;;34.30;41.00;;;;;;5090721;28;20106;-56
2022/08/04 17:11:05;;;;;;;2.42;0.20;;;34.30;41.00;;;;;;5090278;28;20051;-58
2022/08/04 17:13:34;;;;;;;1.13;0.30;;;34.30;41.10;;;;;;5090963;28;20098;-72
2022/08/04 17:16:02;;;;;;;39.38;0.98;;;34.20;41.30;;;;;;5082947;28;20045;-55
2022/08/04 17:18:33;;;;;;;1.80;0.25;;;34.20;42.20;;;;;;5075453;28;20071;-61
2022/08/04 17:21:02;;;;;;;3.08;0.30;;;34.30;41.60;;;;;;5089492;28;20040;-67
2022/08/04 17:23:33;;;;;;;1.83;0.60;;;34.20;41.30;;;;;;5089484;28;20047;-62
2022/08/04 17:26:02;;;;;;;0.70;0.45;;;34.20;41.10;;;;;;5087186;28;20130;-62
2022/08/04 17:28:30;;;;;;;5.78;0.40;;;34.20;41.00;;;;;;5079413;28;20044;-59
2022/08/04 17:30:58;;;;;;;2.95;0.60;;;34.20;40.90;;;;;;5089035;28;20591;-61
2022/08/04 17:33:26;;;;;;;15.25;0.65;;;34.20;40.90;;;;;;5087876;28;20040;-64
2022/08/04 17:35:56;;;;;;;5.55;0.40;;;34.20;41.80;;;;;;5090747;28;20533;-61
2022/08/04 17:38:30;;;;;;;4.00;0.63;;;34.20;41.20;;;;;;5088909;28;20036;-61
2022/08/04 17:40:59;;;;;;;2.25;0.60;;;34.10;40.90;;;;;;5087840;28;20044;-61
2022/08/04 17:43:46;;;;;;;6.32;0.47;;;34.10;40.90;;;;;;5090279;28;20051;-63
2022/08/04 17:46:22;;;;;;;0.82;0.63;;;34.10;41.00;;;;;;5081129;28;20097;-64
2022/08/04 17:49:07;;;;;;;4.25;0.63;;;34.10;41.10;;;;;;5087488;28;20126;-60
2022/08/04 17:51:46;;;;;;;0.70;0.30;;;34.10;41.10;;;;;;5089867;28;20059;-56
2022/08/04 17:54:16;;;;;;;2.08;0.30;;;34.10;41.20;;;;;;5086958;28;20075;-57
2022/08/04 17:56:45;;;;;;;0.52;0.32;;;34.10;41.40;;;;;;5084895;28;20028;-57
2022/08/04 17:59:16;;;;;;;3.90;0.95;;;34.10;41.40;;;;;;5083136;28;20136;-61
2022/08/04 18:01:55;;;;;;;6.95;0.50;;;34.10;41.40;;;;;;5083332;28;20136;-49
2022/08/04 18:04:39;;;;;;;3.42;0.50;;;34.10;41.30;;;;;;5088456;28;20126;-53
2022/08/04 18:07:10;;;;;;;3.13;0.30;;;34.10;41.30;;;;;;5088151;28;20036;-58
2022/08/04 18:09:39;;;;;;;2.83;0.43;;;34.10;41.40;;;;;;5088966;28;20056;-57
2022/08/04 18:12:08;;;;;;;0.80;0.40;;;34.10;41.50;;;;;;5085748;28;20085;-53
2022/08/04 18:14:43;;;;;;;4.63;0.22;;;34.10;41.30;;;;;;5087401;28;20054;-54
2022/08/04 18:17:12;;;;;;;0.77;0.38;;;34.10;41.20;;;;;;5086581;28;20050;-58
2022/08/04 18:19:50;;;;;;;1.38;0.82;;;34.10;41.20;;;;;;5092140;28;20401;-58
2022/08/04 18:22:19;;;;;;;0.82;0.30;;;34.10;41.10;;;;;;5081145;28;20572;-59
2022/08/04 18:24:46;;;;;;;2.33;0.95;;;34.10;41.20;;;;;;5082922;28;20416;-59
2022/08/04 18:27:14;;;;;;;0.52;0.50;;;34.10;41.20;;;;;;5089783;28;20044;-60
2022/08/04 18:29:41;;;;;;;1.30;0.55;;;34.00;41.30;;;;;;5083357;28;20141;-55
2022/08/04 18:32:08;;;;;;;6.28;1.33;;;34.00;41.40;;;;;;5086101;28;20115;-51
2022/08/04 18:34:35;;;;;;;3.22;0.95;;;34.00;41.50;;;;;;5087230;28;20044;-53
2022/08/04 18:37:02;;;;;;;3.70;0.77;;;34.00;41.60;;;;;;5087552;28;20062;-53
2022/08/04 18:39:31;;;;;;;1.92;0.77;;;34.00;41.60;;;;;;5084406;28;20040;-59
2022/08/04 18:41:58;;;;;;;7.88;0.70;;;34.00;41.50;;;;;;5084181;28;20048;-56
2022/08/04 18:44:27;;;;;;;1.70;0.50;;;34.00;41.40;;;;;;5088895;28;20037;-52
2022/08/04 18:46:54;;;;;;;4.80;0.95;;;34.00;41.20;;;;;;5068746;28;20040;-57
2022/08/04 18:49:23;;;;;;;4.43;0.30;;;34.00;41.00;;;;;;5084960;28;20044;-52
2022/08/04 18:51:51;;;;;;;5.10;1.35;;;34.00;40.90;;;;;;5084470;28;20062;-56
2022/08/04 18:54:18;;;;;;;1.88;0.57;;;34.00;40.90;;;;;;5086856;28;20523;-57
2022/08/04 18:56:47;;;;;;;1.85;0.50;;;34.00;40.70;;;;;;5086990;28;20804;-52
2022/08/04 18:59:14;;;;;;;1.27;0.40;;;33.90;40.60;;;;;;5081605;28;20054;-53
2022/08/04 19:01:42;;;;;;;2.97;0.70;;;33.90;40.50;;;;;;5096227;28;20039;-53
2022/08/04 19:04:10;;;;;;;0.63;0.28;;;33.90;40.50;;;;;;5087058;28;20040;-49
2022/08/04 19:06:38;;;;;;;0.75;0.57;;;34.00;40.40;;;;;;5084378;28;20059;-49
2022/08/04 19:09:05;;;;;;;1.30;0.20;;;34.00;40.10;;;;;;5084309;28;20040;-58
2022/08/04 19:11:33;;;;;;;4.47;0.28;;;34.00;39.90;;;;;;5083879;28;20059;-44
2022/08/04 19:14:01;;;;;;;1.65;0.20;;;34.00;39.50;;;;;;5084717;28;20044;-70
2022/08/04 19:16:30;;;;;;;1.50;0.22;;;34.00;39.40;;;;;;5087979;28;20052;-65
2022/08/04 19:18:59;;;;;;;2.75;0.22;;;34.10;39.50;;;;;;5092251;28;20031;-65
2022/08/04 19:21:26;;;;;;;5.70;0.57;;;34.00;39.30;;;;;;5084533;28;20470;-68
2022/08/04 19:23:54;;;;;;;2.38;0.43;;;34.10;39.60;;;;;;5086839;28;20040;-63
2022/08/04 19:26:23;;;;;;;1.52;0.20;;;34.00;39.10;;;;;;5084070;28;20068;-64
2022/08/04 19:28:50;;;;;;;0.40;0.28;;;34.00;38.90;;;;;;5086479;28;20097;-63
2022/08/04 19:31:19;;;;;;;1.58;0.10;;;33.90;38.70;;;;;;5083499;28;20083;-64
2022/08/04 19:33:47;;;;;;;1.65;0.40;;;34.00;38.60;;;;;;5086624;28;20046;-65
2022/08/04 19:36:14;;;;;;;2.40;0.35;;;33.80;38.50;;;;;;5084850;28;20055;-65
2022/08/04 19:38:42;;;;;;;0.50;0.40;;;33.80;38.50;;;;;;5089674;28;20040;-71
2022/08/04 19:41:09;;;;;;;1.10;0.10;;;33.80;38.50;;;;;;5087976;28;20135;-58
2022/08/04 19:43:36;;;;;;;2.35;0.30;;;33.70;38.50;;;;;;5086772;28;20059;-64
2022/08/04 19:46:03;;;;;;;1.17;0.30;;;33.70;38.70;;;;;;5087232;28;20044;-66
2022/08/04 19:48:31;;;;;;;2.20;0.35;;;33.70;38.70;;;;;;5087275;28;20396;-66
2022/08/04 19:50:58;;;;;;;3.13;0.10;;;33.60;38.60;;;;;;5088208;28;20046;-70
2022/08/04 19:53:25;;;;;;;3.42;0.20;;;33.60;38.60;;;;;;5087178;28;20040;-67
2022/08/04 19:55:52;;;;;;;1.48;0.28;;;33.60;38.80;;;;;;5088675;28;20080;-67
2022/08/04 19:58:19;;;;;;;1.95;0.40;;;33.60;38.80;;;;;;5083036;28;20051;-68
2022/08/04 20:00:46;;;;;;;4.72;0.25;;;33.50;38.80;;;;;;5090710;28;20050;-66
2022/08/04 20:03:13;;;;;;;1.45;0.22;;;33.50;38.80;;;;;;5091597;28;20036;-68
2022/08/04 20:05:44;;;;;;;3.65;0.20;;;33.50;38.90;;;;;;5089579;28;20099;-68
2022/08/04 20:08:11;;;;;;;3.22;0.20;;;33.50;38.90;;;;;;5090744;28;20054;-65
2022/08/04 20:10:39;;;;;;;1.90;1.63;;;33.50;38.90;;;;;;5091000;28;20508;-67
2022/08/04 20:13:06;;;;;;;2.65;0.88;;;33.50;38.90;;;;;;5092150;28;20585;-71
2022/08/04 20:15:33;;;;;;;2.33;0.50;;;33.40;38.90;;;;;;5091419;28;20039;-71
2022/08/04 20:18:00;;;;;;;3.55;0.30;;;33.40;39.00;;;;;;5093508;28;20070;-68
2022/08/04 20:20:28;;;;;;;0.47;0.20;;;33.40;38.90;;;;;;5092620;28;20032;-68
2022/08/04 20:22:56;;;;;;;3.95;0.30;;;33.30;38.70;;;;;;5094517;28;20131;-65
2022/08/04 20:25:23;;;;;;;2.75;0.20;;;33.30;38.60;;;;;;5090399;28;20044;-62
2022/08/04 20:27:50;;;;;;;7.38;0.32;;;33.30;38.50;;;;;;5087743;28;20043;-68
2022/08/04 20:30:17;;;;;;;1.85;0.52;;;33.30;38.50;;;;;;5088853;28;20051;-70
2022/08/04 20:32:45;;;;;;;3.78;0.45;;;33.20;38.90;;;;;;5077159;28;20055;-58
2022/08/04 20:35:12;;;;;;;4.85;0.25;;;33.20;38.30;;;;;;5089602;28;20093;-68
2022/08/04 20:37:42;;;;;;;1.42;0.20;;;33.10;38.20;;;;;;5090298;28;20082;-67
2022/08/04 20:40:11;;;;;;;2.13;0.20;;;33.10;38.30;;;;;;5090212;28;20059;-58
2022/08/04 20:42:39;;;;;;;2.25;0.45;;;33.10;38.20;;;;;;5090940;28;20516;-56
2022/08/04 20:45:07;;;;;;;1.48;0.20;;;33.00;38.30;;;;;;5090301;28;20042;-55
2022/08/04 20:47:34;;;;;;;3.25;0.32;;;32.90;38.30;;;;;;5089996;28;20516;-54
2022/08/04 20:50:01;;;;;;;33.80;0.40;;;32.90;38.20;;;;;;5089031;28;20579;-53
2022/08/04 20:52:29;;;;;;;1.25;0.30;;;32.80;38.80;;;;;;5086434;28;20036;-56
2022/08/04 20:54:56;;;;;;;5.43;0.20;;;32.70;38.40;;;;;;5089649;28;20040;-53
2022/08/04 20:57:24;;;;;;;4.10;0.10;;;32.60;38.40;;;;;;5087432;28;20420;-54
2022/08/04 20:59:51;;;;;;;1.85;0.10;;;32.40;38.40;;;;;;5086639;28;20047;-55
2022/08/04 21:02:19;;;;;;;5.00;0.40;;;32.30;38.40;;;;;;5089726;28;20037;-66
2022/08/04 21:04:47;;;;;;;3.42;0.90;;;32.10;38.40;;;;;;5089895;28;20036;-54
2022/08/04 21:07:14;;;;;;;2.40;0.10;;;31.90;38.40;;;;;;5089474;28;20512;-61
2022/08/04 21:09:42;;;;;;;1.55;0.55;;;31.80;38.50;;;;;;5089695;28;20074;-55
2022/08/04 21:12:10;;;;;;;4.00;0.15;;;31.70;38.50;;;;;;5089853;28;20048;-69
2022/08/04 21:14:39;;;;;;;1.45;0.22;;;31.60;38.60;;;;;;5089706;28;20036;-54
2022/08/04 21:17:06;;;;;;;0.60;0.10;;;31.60;39.40;;;;;;5089753;28;20048;-53
2022/08/04 21:19:33;;;;;;;4.43;0.15;;;31.50;38.60;;;;;;5089812;28;20071;-65
2022/08/04 21:22:00;;;;;;;3.33;0.20;;;31.50;39.10;;;;;;5088793;28;20064;-66
2022/08/04 21:24:28;;;;;;;6.63;0.20;;;31.50;39.30;;;;;;5089683;28;20512;-65
2022/08/04 21:26:56;;;;;;;10.70;0.73;;;31.50;39.40;;;;;;5078953;28;20043;-54
2022/08/04 21:29:24;;;;;;;13.20;0.85;;;31.50;39.50;;;;;;5088120;28;20046;-54
2022/08/04 21:31:53;;;;;;;3.40;0.20;;;31.50;39.50;;;;;;5077955;28;20475;-59
2022/08/04 21:34:20;;;;;;;2.65;0.20;;;31.60;39.60;;;;;;5086613;28;20047;-64
2022/08/04 21:36:47;;;;;;;6.28;1.38;;;31.60;39.60;;;;;;5088352;28;20032;-52
2022/08/04 21:39:14;;;;;;;6.45;0.30;;;31.60;39.70;;;;;;5087761;28;20036;-50
2022/08/04 21:41:41;;;;;;;0.70;0.13;;;31.70;39.80;;;;;;5087160;28;20044;-52
2022/08/04 21:44:08;;;;;;;1.60;0.60;;;31.70;39.60;;;;;;5085337;28;20456;-55
2022/08/04 21:46:36;;;;;;;0.38;0.10;;;31.70;39.50;;;;;;5088711;28;20127;-54
2022/08/04 21:49:04;;;;;;;0.82;0.50;;;31.70;39.30;;;;;;5088860;28;20036;-59
2022/08/04 21:51:36;;;;;;;3.30;0.43;;;31.70;39.20;;;;;;5088425;28;20039;-66
2022/08/04 21:54:05;;;;;;;3.22;0.20;;;31.70;39.20;;;;;;5089339;28;20075;-65
2022/08/04 21:56:32;;;;;;;3.53;0.75;;;31.80;39.30;;;;;;5088588;28;20040;-65
2022/08/04 21:58:59;;;;;;;0.90;0.10;;;31.70;39.20;;;;;;5088655;28;20039;-53
2022/08/04 22:01:26;;;;;;;1.75;0.38;;;31.70;39.30;;;;;;5084569;28;20039;-53
2022/08/04 22:03:54;;;;;;;0.55;0.10;;;31.80;39.60;;;;;;5088813;28;20127;-52
2022/08/04 22:06:22;;;;;;;2.47;0.20;;;31.80;39.80;;;;;;5088205;28;20043;-50
2022/08/04 22:08:50;;;;;;;2.92;0.10;;;31.80;39.90;;;;;;5088334;28;20172;-51
2022/08/04 22:11:26;;;;;;;0.70;0.20;;;31.90;40.10;;;;;;5088490;28;20219;-51
2022/08/04 22:13:53;;;;;;;6.93;0.68;;;31.90;40.10;;;;;;5084612;28;20093;-49
2022/08/04 22:16:21;;;;;;;4.80;0.20;;;31.90;40.10;;;;;;5071935;28;20043;-54
2022/08/04 22:18:48;;;;;;;1.55;0.25;;;32.00;40.10;;;;;;5086676;28;20122;-58
2022/08/04 22:21:15;;;;;;;1.13;0.20;;;32.00;40.00;;;;;;5088078;28;20044;-63
2022/08/04 22:23:43;;;;;;;2.25;0.10;;;32.00;39.90;;;;;;5088222;28;20036;-49
2022/08/04 22:26:18;;;;;;;1.15;0.10;;;32.10;39.90;;;;;;5077205;28;20135;-51
2022/08/04 22:28:46;;;;;;;2.90;0.40;;;32.10;39.80;;;;;;5088437;28;20248;-52
2022/08/04 22:31:14;;;;;;;3.15;0.35;;;32.10;39.80;;;;;;5081007;28;20040;-51
2022/08/04 22:33:42;;;;;;;2.05;0.28;;;32.10;39.70;;;;;;5082613;28;20046;-54
2022/08/04 22:36:09;;;;;;;2.40;0.10;;;32.10;39.70;;;;;;5086486;28;20050;-55
2022/08/04 22:38:37;;;;;;;0.30;0.10;;;32.10;39.60;;;;;;5085460;28;20057;-54
2022/08/04 22:41:08;;;;;;;3.05;1.17;;;32.10;39.60;;;;;;5088390;28;20040;-52
2022/08/04 22:43:36;;;;;;;2.17;0.10;;;32.10;39.60;;;;;;5088168;28;20126;-53
2022/08/04 22:46:04;;;;;;;0.77;0.40;;;32.10;39.60;;;;;;5087383;28;20047;-67
2022/08/04 22:48:32;;;;;;;3.22;0.40;;;32.10;39.60;;;;;;5087449;28;20040;-70
2022/08/04 22:50:59;;;;;;;2.00;0.20;;;32.10;39.60;;;;;;5087449;28;20051;-51
2022/08/04 22:53:26;;;;;;;0.10;0.10;;;32.10;39.50;;;;;;5087732;28;20036;-52
2022/08/04 22:55:53;;;;;;;2.95;0.10;;;32.10;39.40;;;;;;5087609;28;20039;-49
2022/08/04 22:58:21;;;;;;;1.05;0.10;;;32.10;39.20;;;;;;5078404;28;20040;-51
2022/08/04 23:00:49;;;;;;;0.85;0.30;;;32.10;39.00;;;;;;5087988;28;20043;-53
2022/08/04 23:03:16;;;;;;;1.10;0.20;;;32.10;38.90;;;;;;5087203;28;20131;-51
2022/08/04 23:05:43;;;;;;;0.60;0.52;;;32.10;38.80;;;;;;5081560;28;20475;-53
2022/08/04 23:08:10;;;;;;;1.52;0.10;;;32.10;38.70;;;;;;5087565;28;20507;-51
2022/08/04 23:10:37;;;;;;;0.63;0.45;;;32.20;38.80;;;;;;5087533;28;20496;-49
2022/08/04 23:13:04;;;;;;;0.70;0.25;;;32.20;38.80;;;;;;5087641;28;20143;-53
2022/08/04 23:15:32;;;;;;;2.10;0.13;;;32.20;39.00;;;;;;5087445;28;20036;-52
2022/08/04 23:17:59;;;;;;;1.10;0.30;;;32.20;39.20;;;;;;5087316;28;20122;-50
2022/08/04 23:20:26;;;;;;;0.95;0.20;;;32.20;39.30;;;;;;5087810;28;20036;-50
2022/08/04 23:22:53;;;;;;;4.97;0.10;;;32.30;39.60;;;;;;5087954;28;20057;-51
2022/08/04 23:25:21;;;;;;;3.38;0.30;;;32.20;39.90;;;;;;5087328;28;20044;-51
2022/08/04 23:27:48;;;;;;;1.70;0.15;;;32.30;40.30;;;;;;5087557;28;20048;-48
2022/08/04 23:30:18;;;;;;;1.50;0.20;;;32.30;40.50;;;;;;5085116;28;20096;-48
2022/08/04 23:32:46;;;;;;;0.20;0.20;;;32.30;40.60;;;;;;5089929;28;20131;-50
2022/08/04 23:35:13;;;;;;;1.17;0.13;;;32.30;40.70;;;;;;5091447;28;20047;-47
2022/08/04 23:37:40;;;;;;;2.55;0.10;;;32.30;40.70;;;;;;5091595;28;20109;-47
2022/08/04 23:40:09;;;;;;;0.43;0.10;;;32.40;40.90;;;;;;5091560;28;20033;-48
2022/08/04 23:42:36;;;;;;;4.03;0.10;;;32.40;40.90;;;;;;5092136;28;20737;-51
2022/08/04 23:45:03;;;;;;;1.27;0.32;;;32.40;41.10;;;;;;5083803;28;20044;-51
2022/08/04 23:47:30;;;;;;;3.30;0.17;;;32.40;41.30;;;;;;5090927;28;20123;-54
2022/08/04 23:49:59;;;;;;;3.53;0.20;;;32.30;41.40;;;;;;5091394;28;20036;-57
2022/08/04 23:52:26;;;;;;;1.67;0.68;;;32.40;41.50;;;;;;5091415;28;20123;-55
2022/08/04 23:54:53;;;;;;;3.63;0.17;;;32.30;41.40;;;;;;5089935;28;20036;-55
2022/08/04 23:57:20;;;;;;;2.85;0.10;;;32.30;41.40;;;;;;5090999;28;20131;-54
2022/08/04 23:59:47;;;;;;;2.70;0.52;;;32.30;42.00;;;;;;5090010;28;20131;-54
